sensor_id;sensor_type;location;lat;lon;timestamp;P1;durP1;ratioP1;P2;durP2;ratioP2
54947;SDS011;41113;41.882;12.530;2023-05-07T00:01:04;13.30;;;7.03;;
54947;SDS011;41113;41.882;12.530;2023-05-07T00:03:31;11.77;;;6.38;;
54947;SDS011;41113;41.882;12.530;2023-05-07T00:05:57;12.98;;;7.85;;
54947;SDS011;41113;41.882;12.530;2023-05-07T00:08:22;12.00;;;7.63;;
54947;SDS011;41113;41.882;12.530;2023-05-07T00:10:48;13.27;;;7.05;;
54947;SDS011;41113;41.882;12.530;2023-05-07T00:13:13;10.48;;;5.90;;
54947;SDS011;41113;41.882;12.530;2023-05-07T00:15:40;12.30;;;7.53;;
54947;SDS011;41113;41.882;12.530;2023-05-07T00:18:05;12.23;;;7.00;;
54947;SDS011;41113;41.882;12.530;2023-05-07T00:20:30;16.27;;;8.15;;
54947;SDS011;41113;41.882;12.530;2023-05-07T00:22:56;12.02;;;7.15;;
54947;SDS011;41113;41.882;12.530;2023-05-07T00:25:21;11.90;;;6.50;;
54947;SDS011;41113;41.882;12.530;2023-05-07T00:27:46;12.68;;;7.47;;
54947;SDS011;41113;41.882;12.530;2023-05-07T00:30:12;14.63;;;7.40;;
54947;SDS011;41113;41.882;12.530;2023-05-07T00:32:37;13.65;;;8.13;;
54947;SDS011;41113;41.882;12.530;2023-05-07T00:35:03;14.65;;;7.90;;
54947;SDS011;41113;41.882;12.530;2023-05-07T00:37:29;12.13;;;7.70;;
54947;SDS011;41113;41.882;12.530;2023-05-07T00:39:55;12.63;;;7.63;;
54947;SDS011;41113;41.882;12.530;2023-05-07T00:42:20;12.35;;;7.15;;
54947;SDS011;41113;41.882;12.530;2023-05-07T00:44:45;10.90;;;7.25;;
54947;SDS011;41113;41.882;12.530;2023-05-07T00:47:11;13.13;;;7.18;;
54947;SDS011;41113;41.882;12.530;2023-05-07T00:49:38;13.25;;;7.70;;
54947;SDS011;41113;41.882;12.530;2023-05-07T00:52:06;14.32;;;8.43;;
54947;SDS011;41113;41.882;12.530;2023-05-07T00:54:34;11.68;;;7.10;;
54947;SDS011;41113;41.882;12.530;2023-05-07T00:56:59;12.02;;;6.95;;
54947;SDS011;41113;41.882;12.530;2023-05-07T00:59:27;12.15;;;7.13;;
54947;SDS011;41113;41.882;12.530;2023-05-07T01:01:52;11.52;;;6.80;;
54947;SDS011;41113;41.882;12.530;2023-05-07T01:04:18;13.35;;;7.90;;
54947;SDS011;41113;41.882;12.530;2023-05-07T01:06:44;12.52;;;8.07;;
54947;SDS011;41113;41.882;12.530;2023-05-07T01:09:10;12.43;;;7.93;;
54947;SDS011;41113;41.882;12.530;2023-05-07T01:11:36;12.00;;;7.00;;
54947;SDS011;41113;41.882;12.530;2023-05-07T01:14:03;13.18;;;7.47;;
54947;SDS011;41113;41.882;12.530;2023-05-07T01:16:29;11.55;;;6.35;;
54947;SDS011;41113;41.882;12.530;2023-05-07T01:18:54;14.00;;;8.07;;
54947;SDS011;41113;41.882;12.530;2023-05-07T01:21:20;12.05;;;7.07;;
54947;SDS011;41113;41.882;12.530;2023-05-07T01:23:51;11.23;;;5.82;;
54947;SDS011;41113;41.882;12.530;2023-05-07T01:26:17;13.40;;;6.97;;
54947;SDS011;41113;41.882;12.530;2023-05-07T01:28:44;13.80;;;8.13;;
54947;SDS011;41113;41.882;12.530;2023-05-07T01:31:10;13.77;;;7.78;;
54947;SDS011;41113;41.882;12.530;2023-05-07T01:33:38;10.93;;;5.57;;
54947;SDS011;41113;41.882;12.530;2023-05-07T01:36:07;9.30;;;4.90;;
54947;SDS011;41113;41.882;12.530;2023-05-07T01:38:34;14.27;;;7.45;;
54947;SDS011;41113;41.882;12.530;2023-05-07T01:41:01;14.02;;;7.97;;
54947;SDS011;41113;41.882;12.530;2023-05-07T01:43:27;14.07;;;9.23;;
54947;SDS011;41113;41.882;12.530;2023-05-07T01:45:54;12.73;;;7.70;;
54947;SDS011;41113;41.882;12.530;2023-05-07T01:48:20;10.88;;;5.70;;
54947;SDS011;41113;41.882;12.530;2023-05-07T01:50:46;11.30;;;6.00;;
54947;SDS011;41113;41.882;12.530;2023-05-07T01:53:12;10.75;;;6.03;;
54947;SDS011;41113;41.882;12.530;2023-05-07T01:55:38;10.77;;;6.00;;
54947;SDS011;41113;41.882;12.530;2023-05-07T01:58:03;11.43;;;5.45;;
54947;SDS011;41113;41.882;12.530;2023-05-07T02:00:29;10.50;;;5.53;;
54947;SDS011;41113;41.882;12.530;2023-05-07T02:02:55;12.45;;;6.57;;
54947;SDS011;41113;41.882;12.530;2023-05-07T02:05:20;13.27;;;6.25;;
54947;SDS011;41113;41.882;12.530;2023-05-07T02:07:46;12.23;;;6.60;;
54947;SDS011;41113;41.882;12.530;2023-05-07T02:10:11;10.27;;;5.63;;
54947;SDS011;41113;41.882;12.530;2023-05-07T02:12:36;11.82;;;5.90;;
54947;SDS011;41113;41.882;12.530;2023-05-07T02:15:02;11.55;;;6.55;;
54947;SDS011;41113;41.882;12.530;2023-05-07T02:17:27;14.98;;;8.10;;
54947;SDS011;41113;41.882;12.530;2023-05-07T02:19:56;16.67;;;9.63;;
54947;SDS011;41113;41.882;12.530;2023-05-07T02:22:22;17.25;;;10.60;;
54947;SDS011;41113;41.882;12.530;2023-05-07T02:24:47;16.02;;;9.95;;
54947;SDS011;41113;41.882;12.530;2023-05-07T02:27:12;14.88;;;8.88;;
54947;SDS011;41113;41.882;12.530;2023-05-07T02:29:38;14.57;;;8.68;;
54947;SDS011;41113;41.882;12.530;2023-05-07T02:32:03;13.85;;;7.75;;
54947;SDS011;41113;41.882;12.530;2023-05-07T02:34:29;13.35;;;8.10;;
54947;SDS011;41113;41.882;12.530;2023-05-07T02:36:54;13.30;;;7.28;;
54947;SDS011;41113;41.882;12.530;2023-05-07T02:39:20;13.90;;;7.47;;
54947;SDS011;41113;41.882;12.530;2023-05-07T02:41:46;13.68;;;8.02;;
54947;SDS011;41113;41.882;12.530;2023-05-07T02:44:11;13.05;;;7.10;;
54947;SDS011;41113;41.882;12.530;2023-05-07T02:46:36;13.07;;;7.00;;
54947;SDS011;41113;41.882;12.530;2023-05-07T02:49:01;15.63;;;8.18;;
54947;SDS011;41113;41.882;12.530;2023-05-07T02:51:27;13.60;;;7.72;;
54947;SDS011;41113;41.882;12.530;2023-05-07T02:53:52;15.57;;;7.97;;
54947;SDS011;41113;41.882;12.530;2023-05-07T02:56:18;15.75;;;8.30;;
54947;SDS011;41113;41.882;12.530;2023-05-07T02:58:43;16.73;;;9.32;;
54947;SDS011;41113;41.882;12.530;2023-05-07T03:01:08;14.45;;;8.95;;
54947;SDS011;41113;41.882;12.530;2023-05-07T03:03:34;18.27;;;9.00;;
54947;SDS011;41113;41.882;12.530;2023-05-07T03:06:00;15.88;;;8.50;;
54947;SDS011;41113;41.882;12.530;2023-05-07T03:08:26;15.23;;;8.52;;
54947;SDS011;41113;41.882;12.530;2023-05-07T03:10:51;13.10;;;7.82;;
54947;SDS011;41113;41.882;12.530;2023-05-07T03:13:17;13.90;;;6.65;;
54947;SDS011;41113;41.882;12.530;2023-05-07T03:15:42;12.18;;;6.80;;
54947;SDS011;41113;41.882;12.530;2023-05-07T03:18:08;11.77;;;6.10;;
54947;SDS011;41113;41.882;12.530;2023-05-07T03:20:33;12.10;;;6.63;;
54947;SDS011;41113;41.882;12.530;2023-05-07T03:22:59;11.05;;;5.60;;
54947;SDS011;41113;41.882;12.530;2023-05-07T03:25:25;12.05;;;6.13;;
54947;SDS011;41113;41.882;12.530;2023-05-07T03:27:50;12.25;;;6.53;;
54947;SDS011;41113;41.882;12.530;2023-05-07T03:30:16;12.70;;;6.22;;
54947;SDS011;41113;41.882;12.530;2023-05-07T03:32:41;14.25;;;6.45;;
54947;SDS011;41113;41.882;12.530;2023-05-07T03:35:06;12.40;;;6.10;;
54947;SDS011;41113;41.882;12.530;2023-05-07T03:37:32;11.05;;;5.72;;
54947;SDS011;41113;41.882;12.530;2023-05-07T03:39:57;12.35;;;6.20;;
54947;SDS011;41113;41.882;12.530;2023-05-07T03:42:23;12.25;;;5.45;;
54947;SDS011;41113;41.882;12.530;2023-05-07T03:44:48;11.13;;;5.40;;
54947;SDS011;41113;41.882;12.530;2023-05-07T03:47:14;10.40;;;5.28;;
54947;SDS011;41113;41.882;12.530;2023-05-07T03:49:39;11.43;;;5.15;;
54947;SDS011;41113;41.882;12.530;2023-05-07T03:52:05;9.20;;;4.25;;
54947;SDS011;41113;41.882;12.530;2023-05-07T03:54:30;11.18;;;4.40;;
54947;SDS011;41113;41.882;12.530;2023-05-07T03:56:56;11.60;;;4.43;;
54947;SDS011;41113;41.882;12.530;2023-05-07T03:59:22;11.57;;;5.97;;
54947;SDS011;41113;41.882;12.530;2023-05-07T04:01:47;11.63;;;5.18;;
54947;SDS011;41113;41.882;12.530;2023-05-07T04:04:13;12.45;;;5.57;;
54947;SDS011;41113;41.882;12.530;2023-05-07T04:06:39;13.45;;;5.50;;
54947;SDS011;41113;41.882;12.530;2023-05-07T04:09:05;14.23;;;5.60;;
54947;SDS011;41113;41.882;12.530;2023-05-07T04:11:31;11.52;;;5.47;;
54947;SDS011;41113;41.882;12.530;2023-05-07T04:13:57;15.52;;;6.00;;
54947;SDS011;41113;41.882;12.530;2023-05-07T04:16:22;11.23;;;5.97;;
54947;SDS011;41113;41.882;12.530;2023-05-07T04:18:47;12.27;;;6.07;;
54947;SDS011;41113;41.882;12.530;2023-05-07T04:21:19;11.95;;;6.47;;
54947;SDS011;41113;41.882;12.530;2023-05-07T04:23:49;12.32;;;5.78;;
54947;SDS011;41113;41.882;12.530;2023-05-07T04:26:14;12.03;;;5.90;;
54947;SDS011;41113;41.882;12.530;2023-05-07T04:28:41;10.82;;;5.47;;
54947;SDS011;41113;41.882;12.530;2023-05-07T04:31:06;11.60;;;6.10;;
54947;SDS011;41113;41.882;12.530;2023-05-07T04:33:32;14.95;;;5.97;;
54947;SDS011;41113;41.882;12.530;2023-05-07T04:35:58;12.15;;;6.90;;
54947;SDS011;41113;41.882;12.530;2023-05-07T04:40:53;10.82;;;5.78;;
54947;SDS011;41113;41.882;12.530;2023-05-07T04:43:18;11.98;;;5.88;;
54947;SDS011;41113;41.882;12.530;2023-05-07T04:45:44;12.98;;;7.03;;
54947;SDS011;41113;41.882;12.530;2023-05-07T04:48:10;11.60;;;6.70;;
54947;SDS011;41113;41.882;12.530;2023-05-07T04:50:35;14.50;;;7.60;;
54947;SDS011;41113;41.882;12.530;2023-05-07T04:53:00;13.85;;;7.80;;
54947;SDS011;41113;41.882;12.530;2023-05-07T04:55:26;13.32;;;8.13;;
54947;SDS011;41113;41.882;12.530;2023-05-07T04:57:51;13.13;;;7.28;;
54947;SDS011;41113;41.882;12.530;2023-05-07T05:00:17;13.43;;;7.70;;
54947;SDS011;41113;41.882;12.530;2023-05-07T05:02:44;15.05;;;7.97;;
54947;SDS011;41113;41.882;12.530;2023-05-07T05:05:10;15.90;;;8.05;;
54947;SDS011;41113;41.882;12.530;2023-05-07T05:07:36;13.98;;;8.15;;
54947;SDS011;41113;41.882;12.530;2023-05-07T05:10:02;12.45;;;8.13;;
54947;SDS011;41113;41.882;12.530;2023-05-07T05:12:28;15.27;;;8.00;;
54947;SDS011;41113;41.882;12.530;2023-05-07T05:14:54;15.15;;;7.75;;
54947;SDS011;41113;41.882;12.530;2023-05-07T05:17:19;12.40;;;8.05;;
54947;SDS011;41113;41.882;12.530;2023-05-07T05:19:45;14.05;;;8.13;;
54947;SDS011;41113;41.882;12.530;2023-05-07T05:22:10;16.13;;;8.75;;
54947;SDS011;41113;41.882;12.530;2023-05-07T05:24:36;16.98;;;10.38;;
54947;SDS011;41113;41.882;12.530;2023-05-07T05:27:01;15.48;;;8.50;;
54947;SDS011;41113;41.882;12.530;2023-05-07T05:29:27;12.73;;;7.53;;
54947;SDS011;41113;41.882;12.530;2023-05-07T05:31:52;16.40;;;9.45;;
54947;SDS011;41113;41.882;12.530;2023-05-07T05:34:17;15.43;;;8.45;;
54947;SDS011;41113;41.882;12.530;2023-05-07T05:42:46;13.52;;;7.47;;
54947;SDS011;41113;41.882;12.530;2023-05-07T05:45:16;14.27;;;7.75;;
54947;SDS011;41113;41.882;12.530;2023-05-07T05:47:43;13.38;;;7.22;;
54947;SDS011;41113;41.882;12.530;2023-05-07T05:50:09;11.35;;;5.70;;
54947;SDS011;41113;41.882;12.530;2023-05-07T05:52:34;15.07;;;6.60;;
54947;SDS011;41113;41.882;12.530;2023-05-07T05:55:00;12.07;;;6.50;;
54947;SDS011;41113;41.882;12.530;2023-05-07T05:57:25;11.98;;;5.70;;
54947;SDS011;41113;41.882;12.530;2023-05-07T05:59:50;11.63;;;5.30;;
54947;SDS011;41113;41.882;12.530;2023-05-07T06:02:17;12.90;;;5.50;;
54947;SDS011;41113;41.882;12.530;2023-05-07T06:04:42;13.07;;;4.57;;
54947;SDS011;41113;41.882;12.530;2023-05-07T06:07:07;10.85;;;5.35;;
54947;SDS011;41113;41.882;12.530;2023-05-07T06:09:33;11.90;;;5.43;;
54947;SDS011;41113;41.882;12.530;2023-05-07T06:11:58;15.00;;;6.38;;
54947;SDS011;41113;41.882;12.530;2023-05-07T06:14:23;11.02;;;5.03;;
54947;SDS011;41113;41.882;12.530;2023-05-07T06:16:49;10.95;;;4.43;;
54947;SDS011;41113;41.882;12.530;2023-05-07T06:19:14;9.82;;;4.88;;
54947;SDS011;41113;41.882;12.530;2023-05-07T06:21:39;11.43;;;4.88;;
54947;SDS011;41113;41.882;12.530;2023-05-07T06:24:05;12.15;;;4.80;;
54947;SDS011;41113;41.882;12.530;2023-05-07T06:26:31;10.85;;;5.00;;
54947;SDS011;41113;41.882;12.530;2023-05-07T06:28:56;9.02;;;4.20;;
54947;SDS011;41113;41.882;12.530;2023-05-07T06:31:21;11.00;;;3.97;;
54947;SDS011;41113;41.882;12.530;2023-05-07T06:33:47;10.05;;;4.60;;
54947;SDS011;41113;41.882;12.530;2023-05-07T06:36:13;11.15;;;4.47;;
54947;SDS011;41113;41.882;12.530;2023-05-07T06:38:39;11.05;;;4.50;;
54947;SDS011;41113;41.882;12.530;2023-05-07T06:41:05;12.23;;;5.43;;
54947;SDS011;41113;41.882;12.530;2023-05-07T06:43:31;10.63;;;4.75;;
54947;SDS011;41113;41.882;12.530;2023-05-07T06:45:56;9.27;;;4.43;;
54947;SDS011;41113;41.882;12.530;2023-05-07T06:48:22;11.73;;;4.78;;
54947;SDS011;41113;41.882;12.530;2023-05-07T06:50:47;11.82;;;5.45;;
54947;SDS011;41113;41.882;12.530;2023-05-07T06:53:12;11.77;;;6.13;;
54947;SDS011;41113;41.882;12.530;2023-05-07T06:55:38;10.40;;;4.93;;
54947;SDS011;41113;41.882;12.530;2023-05-07T06:58:03;9.75;;;4.70;;
54947;SDS011;41113;41.882;12.530;2023-05-07T07:00:29;9.82;;;4.75;;
54947;SDS011;41113;41.882;12.530;2023-05-07T07:02:54;10.82;;;5.47;;
54947;SDS011;41113;41.882;12.530;2023-05-07T07:05:20;11.43;;;5.28;;
54947;SDS011;41113;41.882;12.530;2023-05-07T07:07:45;10.13;;;4.65;;
54947;SDS011;41113;41.882;12.530;2023-05-07T07:10:17;10.18;;;4.53;;
54947;SDS011;41113;41.882;12.530;2023-05-07T07:12:46;10.55;;;5.05;;
54947;SDS011;41113;41.882;12.530;2023-05-07T07:15:11;8.70;;;4.40;;
54947;SDS011;41113;41.882;12.530;2023-05-07T07:17:38;11.32;;;4.15;;
54947;SDS011;41113;41.882;12.530;2023-05-07T07:20:03;10.80;;;4.30;;
54947;SDS011;41113;41.882;12.530;2023-05-07T07:22:29;11.43;;;4.93;;
54947;SDS011;41113;41.882;12.530;2023-05-07T07:24:54;9.52;;;3.63;;
54947;SDS011;41113;41.882;12.530;2023-05-07T07:27:20;10.40;;;4.07;;
54947;SDS011;41113;41.882;12.530;2023-05-07T07:29:45;9.40;;;4.30;;
54947;SDS011;41113;41.882;12.530;2023-05-07T07:32:11;10.32;;;4.20;;
54947;SDS011;41113;41.882;12.530;2023-05-07T07:34:36;9.27;;;3.83;;
54947;SDS011;41113;41.882;12.530;2023-05-07T07:37:01;8.88;;;3.40;;
54947;SDS011;41113;41.882;12.530;2023-05-07T07:39:30;9.05;;;3.65;;
54947;SDS011;41113;41.882;12.530;2023-05-07T07:41:56;10.38;;;4.93;;
54947;SDS011;41113;41.882;12.530;2023-05-07T07:44:22;13.18;;;5.55;;
54947;SDS011;41113;41.882;12.530;2023-05-07T07:46:47;8.88;;;4.20;;
54947;SDS011;41113;41.882;12.530;2023-05-07T07:49:12;9.32;;;4.22;;
54947;SDS011;41113;41.882;12.530;2023-05-07T07:51:38;9.05;;;4.05;;
54947;SDS011;41113;41.882;12.530;2023-05-07T07:54:03;11.63;;;3.80;;
54947;SDS011;41113;41.882;12.530;2023-05-07T07:56:29;8.38;;;3.35;;
54947;SDS011;41113;41.882;12.530;2023-05-07T07:58:54;9.05;;;3.70;;
54947;SDS011;41113;41.882;12.530;2023-05-07T08:01:19;9.02;;;3.47;;
54947;SDS011;41113;41.882;12.530;2023-05-07T08:03:45;8.32;;;3.63;;
54947;SDS011;41113;41.882;12.530;2023-05-07T08:06:10;8.43;;;3.58;;
54947;SDS011;41113;41.882;12.530;2023-05-07T08:08:36;8.27;;;3.40;;
54947;SDS011;41113;41.882;12.530;2023-05-07T08:11:01;7.93;;;3.42;;
54947;SDS011;41113;41.882;12.530;2023-05-07T08:13:26;8.23;;;3.30;;
54947;SDS011;41113;41.882;12.530;2023-05-07T08:15:52;9.63;;;3.13;;
54947;SDS011;41113;41.882;12.530;2023-05-07T08:18:17;8.55;;;3.30;;
54947;SDS011;41113;41.882;12.530;2023-05-07T08:20:42;8.18;;;3.15;;
54947;SDS011;41113;41.882;12.530;2023-05-07T08:23:08;9.07;;;3.00;;
54947;SDS011;41113;41.882;12.530;2023-05-07T08:25:33;6.93;;;2.70;;
54947;SDS011;41113;41.882;12.530;2023-05-07T08:27:59;8.07;;;3.05;;
54947;SDS011;41113;41.882;12.530;2023-05-07T08:30:25;8.75;;;3.55;;
54947;SDS011;41113;41.882;12.530;2023-05-07T08:32:50;9.48;;;2.80;;
54947;SDS011;41113;41.882;12.530;2023-05-07T08:35:15;8.02;;;3.13;;
54947;SDS011;41113;41.882;12.530;2023-05-07T08:37:41;7.70;;;2.90;;
54947;SDS011;41113;41.882;12.530;2023-05-07T08:40:06;8.10;;;3.10;;
54947;SDS011;41113;41.882;12.530;2023-05-07T08:42:32;7.78;;;2.58;;
54947;SDS011;41113;41.882;12.530;2023-05-07T08:45:01;7.45;;;2.90;;
54947;SDS011;41113;41.882;12.530;2023-05-07T08:47:32;8.20;;;3.05;;
54947;SDS011;41113;41.882;12.530;2023-05-07T08:50:03;7.50;;;2.70;;
54947;SDS011;41113;41.882;12.530;2023-05-07T08:52:30;8.30;;;2.63;;
54947;SDS011;41113;41.882;12.530;2023-05-07T08:54:56;7.15;;;2.80;;
54947;SDS011;41113;41.882;12.530;2023-05-07T08:57:21;9.45;;;2.95;;
54947;SDS011;41113;41.882;12.530;2023-05-07T08:59:49;7.82;;;2.90;;
54947;SDS011;41113;41.882;12.530;2023-05-07T09:02:15;7.78;;;2.78;;
54947;SDS011;41113;41.882;12.530;2023-05-07T09:04:41;7.45;;;2.65;;
54947;SDS011;41113;41.882;12.530;2023-05-07T09:07:06;6.88;;;2.35;;
54947;SDS011;41113;41.882;12.530;2023-05-07T09:09:32;8.48;;;3.10;;
54947;SDS011;41113;41.882;12.530;2023-05-07T09:11:59;6.43;;;2.60;;
54947;SDS011;41113;41.882;12.530;2023-05-07T09:14:24;6.75;;;2.40;;
54947;SDS011;41113;41.882;12.530;2023-05-07T09:16:51;10.07;;;2.80;;
54947;SDS011;41113;41.882;12.530;2023-05-07T09:19:22;7.55;;;2.50;;
54947;SDS011;41113;41.882;12.530;2023-05-07T09:21:48;8.07;;;2.58;;
54947;SDS011;41113;41.882;12.530;2023-05-07T09:24:15;7.28;;;2.60;;
54947;SDS011;41113;41.882;12.530;2023-05-07T09:26:41;7.85;;;2.90;;
54947;SDS011;41113;41.882;12.530;2023-05-07T09:29:07;8.00;;;2.53;;
54947;SDS011;41113;41.882;12.530;2023-05-07T09:31:35;7.22;;;2.70;;
54947;SDS011;41113;41.882;12.530;2023-05-07T09:34:04;8.02;;;2.80;;
54947;SDS011;41113;41.882;12.530;2023-05-07T09:36:29;6.32;;;2.40;;
54947;SDS011;41113;41.882;12.530;2023-05-07T09:38:59;8.40;;;2.88;;
54947;SDS011;41113;41.882;12.530;2023-05-07T09:41:24;12.77;;;2.95;;
54947;SDS011;41113;41.882;12.530;2023-05-07T09:43:54;8.43;;;2.88;;
54947;SDS011;41113;41.882;12.530;2023-05-07T09:46:20;9.70;;;2.58;;
54947;SDS011;41113;41.882;12.530;2023-05-07T09:48:53;6.10;;;2.25;;
54947;SDS011;41113;41.882;12.530;2023-05-07T09:53:52;8.80;;;2.75;;
54947;SDS011;41113;41.882;12.530;2023-05-07T09:56:18;8.20;;;2.80;;
54947;SDS011;41113;41.882;12.530;2023-05-07T09:58:45;7.10;;;2.78;;
54947;SDS011;41113;41.882;12.530;2023-05-07T10:01:11;7.20;;;2.50;;
54947;SDS011;41113;41.882;12.530;2023-05-07T10:03:39;6.03;;;2.15;;
54947;SDS011;41113;41.882;12.530;2023-05-07T10:06:06;7.43;;;2.72;;
54947;SDS011;41113;41.882;12.530;2023-05-07T10:08:34;7.53;;;2.50;;
54947;SDS011;41113;41.882;12.530;2023-05-07T10:11:00;6.85;;;2.70;;
54947;SDS011;41113;41.882;12.530;2023-05-07T10:13:26;7.32;;;2.92;;
54947;SDS011;41113;41.882;12.530;2023-05-07T10:15:52;8.15;;;3.42;;
54947;SDS011;41113;41.882;12.530;2023-05-07T10:18:18;9.32;;;2.88;;
54947;SDS011;41113;41.882;12.530;2023-05-07T10:20:54;7.03;;;2.92;;
54947;SDS011;41113;41.882;12.530;2023-05-07T10:23:23;8.60;;;3.05;;
54947;SDS011;41113;41.882;12.530;2023-05-07T10:25:49;6.55;;;2.22;;
54947;SDS011;41113;41.882;12.530;2023-05-07T10:28:15;6.82;;;2.38;;
54947;SDS011;41113;41.882;12.530;2023-05-07T10:33:16;9.98;;;2.75;;
54947;SDS011;41113;41.882;12.530;2023-05-07T10:35:44;7.47;;;2.72;;
54947;SDS011;41113;41.882;12.530;2023-05-07T10:38:11;7.28;;;2.88;;
54947;SDS011;41113;41.882;12.530;2023-05-07T10:40:37;9.25;;;2.80;;
54947;SDS011;41113;41.882;12.530;2023-05-07T10:43:03;7.05;;;2.35;;
54947;SDS011;41113;41.882;12.530;2023-05-07T10:45:30;8.15;;;2.65;;
54947;SDS011;41113;41.882;12.530;2023-05-07T10:48:05;7.25;;;2.30;;
54947;SDS011;41113;41.882;12.530;2023-05-07T10:50:31;7.85;;;2.45;;
54947;SDS011;41113;41.882;12.530;2023-05-07T10:55:46;8.55;;;2.83;;
54947;SDS011;41113;41.882;12.530;2023-05-07T11:00:49;6.90;;;2.55;;
54947;SDS011;41113;41.882;12.530;2023-05-07T11:03:15;7.77;;;3.27;;
54947;SDS011;41113;41.882;12.530;2023-05-07T11:05:41;8.95;;;2.90;;
54947;SDS011;41113;41.882;12.530;2023-05-07T11:08:07;10.10;;;2.85;;
54947;SDS011;41113;41.882;12.530;2023-05-07T11:10:52;8.63;;;2.97;;
54947;SDS011;41113;41.882;12.530;2023-05-07T11:16:23;6.40;;;2.50;;
54947;SDS011;41113;41.882;12.530;2023-05-07T11:18:50;8.45;;;2.92;;
54947;SDS011;41113;41.882;12.530;2023-05-07T11:24:09;7.25;;;2.95;;
54947;SDS011;41113;41.882;12.530;2023-05-07T11:26:48;8.07;;;2.80;;
54947;SDS011;41113;41.882;12.530;2023-05-07T11:31:43;9.52;;;3.10;;
54947;SDS011;41113;41.882;12.530;2023-05-07T11:34:13;8.20;;;2.75;;
54947;SDS011;41113;41.882;12.530;2023-05-07T11:36:41;8.82;;;3.03;;
54947;SDS011;41113;41.882;12.530;2023-05-07T11:42:32;7.47;;;2.83;;
54947;SDS011;41113;41.882;12.530;2023-05-07T11:44:59;8.35;;;2.90;;
54947;SDS011;41113;41.882;12.530;2023-05-07T11:47:24;7.80;;;2.78;;
54947;SDS011;41113;41.882;12.530;2023-05-07T11:49:53;7.65;;;2.85;;
54947;SDS011;41113;41.882;12.530;2023-05-07T11:52:19;7.63;;;2.72;;
54947;SDS011;41113;41.882;12.530;2023-05-07T11:54:49;8.10;;;2.97;;
54947;SDS011;41113;41.882;12.530;2023-05-07T11:57:15;8.15;;;3.03;;
54947;SDS011;41113;41.882;12.530;2023-05-07T11:59:40;7.53;;;2.75;;
54947;SDS011;41113;41.882;12.530;2023-05-07T12:02:06;7.22;;;2.60;;
54947;SDS011;41113;41.882;12.530;2023-05-07T12:04:32;7.30;;;2.67;;
54947;SDS011;41113;41.882;12.530;2023-05-07T12:06:58;7.35;;;2.80;;
54947;SDS011;41113;41.882;12.530;2023-05-07T12:09:23;8.23;;;2.75;;
54947;SDS011;41113;41.882;12.530;2023-05-07T12:11:48;7.30;;;2.72;;
54947;SDS011;41113;41.882;12.530;2023-05-07T12:14:14;8.43;;;3.05;;
54947;SDS011;41113;41.882;12.530;2023-05-07T12:16:42;8.97;;;3.07;;
54947;SDS011;41113;41.882;12.530;2023-05-07T12:19:09;8.70;;;3.10;;
54947;SDS011;41113;41.882;12.530;2023-05-07T12:21:37;7.13;;;2.90;;
54947;SDS011;41113;41.882;12.530;2023-05-07T12:24:04;7.55;;;2.63;;
54947;SDS011;41113;41.882;12.530;2023-05-07T12:26:30;9.50;;;3.00;;
54947;SDS011;41113;41.882;12.530;2023-05-07T12:28:56;7.90;;;2.85;;
54947;SDS011;41113;41.882;12.530;2023-05-07T12:31:22;8.43;;;3.03;;
54947;SDS011;41113;41.882;12.530;2023-05-07T12:33:48;9.43;;;3.60;;
54947;SDS011;41113;41.882;12.530;2023-05-07T12:36:13;8.50;;;2.92;;
54947;SDS011;41113;41.882;12.530;2023-05-07T12:38:39;8.32;;;3.15;;
54947;SDS011;41113;41.882;12.530;2023-05-07T12:41:06;7.93;;;2.90;;
54947;SDS011;41113;41.882;12.530;2023-05-07T12:43:33;8.30;;;3.15;;
54947;SDS011;41113;41.882;12.530;2023-05-07T12:46:05;9.25;;;3.17;;
54947;SDS011;41113;41.882;12.530;2023-05-07T12:48:32;9.07;;;3.40;;
54947;SDS011;41113;41.882;12.530;2023-05-07T12:51:01;8.70;;;3.28;;
54947;SDS011;41113;41.882;12.530;2023-05-07T12:53:27;7.43;;;2.72;;
54947;SDS011;41113;41.882;12.530;2023-05-07T12:55:54;7.40;;;3.03;;
54947;SDS011;41113;41.882;12.530;2023-05-07T12:58:22;8.25;;;3.22;;
54947;SDS011;41113;41.882;12.530;2023-05-07T13:00:50;7.40;;;3.00;;
54947;SDS011;41113;41.882;12.530;2023-05-07T13:03:23;7.20;;;2.80;;
54947;SDS011;41113;41.882;12.530;2023-05-07T13:05:50;8.13;;;3.25;;
54947;SDS011;41113;41.882;12.530;2023-05-07T13:08:30;9.20;;;2.95;;
54947;SDS011;41113;41.882;12.530;2023-05-07T13:11:00;7.15;;;2.70;;
54947;SDS011;41113;41.882;12.530;2023-05-07T13:13:30;7.88;;;2.83;;
54947;SDS011;41113;41.882;12.530;2023-05-07T13:15:56;9.02;;;2.80;;
54947;SDS011;41113;41.882;12.530;2023-05-07T13:18:22;7.43;;;2.92;;
54947;SDS011;41113;41.882;12.530;2023-05-07T13:20:49;7.80;;;2.85;;
54947;SDS011;41113;41.882;12.530;2023-05-07T13:23:14;8.38;;;3.28;;
54947;SDS011;41113;41.882;12.530;2023-05-07T13:25:39;7.68;;;2.70;;
54947;SDS011;41113;41.882;12.530;2023-05-07T13:28:05;9.65;;;2.95;;
54947;SDS011;41113;41.882;12.530;2023-05-07T13:30:30;7.63;;;2.90;;
54947;SDS011;41113;41.882;12.530;2023-05-07T13:32:56;7.82;;;2.70;;
54947;SDS011;41113;41.882;12.530;2023-05-07T13:35:21;7.70;;;3.03;;
54947;SDS011;41113;41.882;12.530;2023-05-07T13:37:47;6.35;;;2.58;;
54947;SDS011;41113;41.882;12.530;2023-05-07T13:40:14;7.68;;;3.08;;
54947;SDS011;41113;41.882;12.530;2023-05-07T13:42:39;7.30;;;2.33;;
54947;SDS011;41113;41.882;12.530;2023-05-07T13:45:05;7.20;;;2.63;;
54947;SDS011;41113;41.882;12.530;2023-05-07T13:47:31;8.35;;;2.63;;
54947;SDS011;41113;41.882;12.530;2023-05-07T13:49:56;7.40;;;2.65;;
54947;SDS011;41113;41.882;12.530;2023-05-07T13:52:21;7.75;;;2.80;;
54947;SDS011;41113;41.882;12.530;2023-05-07T13:54:47;7.38;;;2.53;;
54947;SDS011;41113;41.882;12.530;2023-05-07T13:57:12;6.20;;;2.40;;
54947;SDS011;41113;41.882;12.530;2023-05-07T13:59:37;7.03;;;2.53;;
54947;SDS011;41113;41.882;12.530;2023-05-07T14:02:03;8.10;;;3.13;;
54947;SDS011;41113;41.882;12.530;2023-05-07T14:04:28;7.15;;;2.78;;
54947;SDS011;41113;41.882;12.530;2023-05-07T14:06:53;7.32;;;2.95;;
54947;SDS011;41113;41.882;12.530;2023-05-07T14:09:19;7.97;;;2.83;;
54947;SDS011;41113;41.882;12.530;2023-05-07T14:11:44;8.60;;;2.83;;
54947;SDS011;41113;41.882;12.530;2023-05-07T14:14:11;8.63;;;2.78;;
54947;SDS011;41113;41.882;12.530;2023-05-07T14:16:36;7.18;;;2.90;;
54947;SDS011;41113;41.882;12.530;2023-05-07T14:19:02;7.72;;;3.10;;
54947;SDS011;41113;41.882;12.530;2023-05-07T14:21:27;6.88;;;2.83;;
54947;SDS011;41113;41.882;12.530;2023-05-07T14:23:52;7.35;;;2.55;;
54947;SDS011;41113;41.882;12.530;2023-05-07T14:26:18;7.75;;;3.03;;
54947;SDS011;41113;41.882;12.530;2023-05-07T14:28:44;7.13;;;2.80;;
54947;SDS011;41113;41.882;12.530;2023-05-07T14:31:11;7.03;;;2.95;;
54947;SDS011;41113;41.882;12.530;2023-05-07T14:33:37;7.97;;;2.78;;
54947;SDS011;41113;41.882;12.530;2023-05-07T14:36:02;7.15;;;2.83;;
54947;SDS011;41113;41.882;12.530;2023-05-07T14:38:28;8.70;;;2.78;;
54947;SDS011;41113;41.882;12.530;2023-05-07T14:40:54;9.57;;;2.88;;
54947;SDS011;41113;41.882;12.530;2023-05-07T14:43:21;9.45;;;3.17;;
54947;SDS011;41113;41.882;12.530;2023-05-07T14:45:46;7.13;;;2.90;;
54947;SDS011;41113;41.882;12.530;2023-05-07T14:48:12;7.68;;;2.90;;
54947;SDS011;41113;41.882;12.530;2023-05-07T14:50:40;36.65;;;23.85;;
54947;SDS011;41113;41.882;12.530;2023-05-07T14:53:06;21.13;;;13.02;;